Time;durP1;ratioP1;P1;durP2;ratioP2;P2;SDS_P1;SDS_P2;PMS_P1;PMS_P2;Temp;Humidity;BMP_temperature;BMP_pressure;BME280_temperature;BME280_humidity;BME280_pressure;Samples;Min_cycle;Max_cycle;Signal;HPM_P1;HPM_P2
2021/03/24 00:01:04;;;;;;;1999.90;999.90;;;3.60;99.90;;;;;;4988176;28;20140;-70
2021/03/24 00:03:30;;;;;;;1999.90;999.90;;;3.60;99.90;;;;;;5006956;28;20396;-70
2021/03/24 00:05:57;;;;;;;1999.90;999.90;;;3.50;99.90;;;;;;5004497;28;20465;-70
2021/03/24 00:08:23;;;;;;;1999.90;999.90;;;3.50;99.90;;;;;;4991528;28;20064;-70
2021/03/24 00:10:51;;;;;;;1999.90;999.90;;;3.50;99.90;;;;;;5007547;28;20049;-70
2021/03/24 00:13:18;;;;;;;1999.90;999.90;;;3.40;99.90;;;;;;4990963;28;20232;-71
2021/03/24 00:15:44;;;;;;;1999.90;999.90;;;3.40;99.90;;;;;;4989186;28;20042;-70
2021/03/24 00:18:11;;;;;;;1999.90;999.90;;;3.40;99.90;;;;;;5007450;28;20054;-70
2021/03/24 00:20:40;;;;;;;1999.90;999.90;;;3.40;99.90;;;;;;4993840;28;20472;-70
2021/03/24 00:23:07;;;;;;;1999.90;999.90;;;3.30;99.90;;;;;;5006357;28;20053;-70
2021/03/24 00:25:35;;;;;;;1999.90;999.90;;;3.30;99.90;;;;;;5003780;28;20061;-70
2021/03/24 00:28:01;;;;;;;1999.90;999.90;;;3.30;99.90;;;;;;5009282;28;20071;-70
2021/03/24 00:30:30;;;;;;;1999.90;999.90;;;3.30;99.90;;;;;;5001849;28;20130;-70
2021/03/24 00:32:57;;;;;;;1999.90;999.90;;;3.30;99.90;;;;;;5002533;28;20129;-70
2021/03/24 00:35:24;;;;;;;1999.90;999.90;;;3.20;99.90;;;;;;5009556;28;20057;-70
2021/03/24 00:37:50;;;;;;;1999.90;999.90;;;3.20;99.90;;;;;;5004639;28;20042;-70
2021/03/24 00:40:21;;;;;;;1999.90;999.90;;;3.20;99.90;;;;;;5002454;28;20046;-70
2021/03/24 00:42:48;;;;;;;1999.90;999.90;;;3.10;99.90;;;;;;5007190;28;20394;-70
2021/03/24 00:45:15;;;;;;;1999.90;999.90;;;3.10;99.90;;;;;;4996640;28;20054;-70
2021/03/24 00:47:41;;;;;;;1999.90;999.90;;;3.00;99.90;;;;;;5002368;28;20053;-70
2021/03/24 00:50:10;;;;;;;1999.90;999.90;;;3.00;99.90;;;;;;5006816;28;20178;-70
2021/03/24 00:52:36;;;;;;;1999.90;999.90;;;3.00;99.90;;;;;;5090126;28;20058;-70
2021/03/24 00:55:03;;;;;;;1999.90;999.90;;;3.00;99.90;;;;;;4988901;28;20061;-70
2021/03/24 00:57:29;;;;;;;1999.90;999.90;;;3.00;99.90;;;;;;5012202;28;20142;-70
2021/03/24 00:59:56;;;;;;;1999.90;999.90;;;2.90;99.90;;;;;;5007481;28;20048;-70
2021/03/24 01:02:22;;;;;;;1999.90;999.90;;;2.90;99.90;;;;;;5007004;28;20060;-70
2021/03/24 01:04:48;;;;;;;1999.90;999.90;;;2.80;99.90;;;;;;4996635;28;20074;-70
2021/03/24 01:07:15;;;;;;;1999.90;999.90;;;2.90;99.90;;;;;;5006974;28;20464;-70
2021/03/24 01:09:42;;;;;;;1999.90;999.90;;;2.80;99.90;;;;;;4990375;28;20074;-70
2021/03/24 01:12:09;;;;;;;1999.90;999.90;;;2.80;99.90;;;;;;4992324;28;20110;-70
2021/03/24 01:14:35;;;;;;;1999.90;999.90;;;2.70;99.90;;;;;;5011054;28;20149;-70
2021/03/24 01:17:02;;;;;;;1999.90;999.90;;;2.70;99.90;;;;;;5008353;28;20509;-70
2021/03/24 01:19:28;;;;;;;1999.90;999.90;;;2.70;99.90;;;;;;4991931;28;20103;-70
2021/03/24 01:21:54;;;;;;;1999.90;999.90;;;2.70;99.90;;;;;;4999630;28;20042;-70
2021/03/24 01:24:20;;;;;;;1999.90;999.90;;;2.60;99.90;;;;;;5096231;27;20053;-70
2021/03/24 01:26:47;;;;;;;1999.90;999.90;;;2.60;99.90;;;;;;5010682;28;20114;-70
2021/03/24 01:29:13;;;;;;;1999.90;999.90;;;2.60;99.90;;;;;;5010428;28;20054;-70
2021/03/24 01:31:39;;;;;;;1999.90;999.90;;;2.60;99.90;;;;;;5008942;28;20081;-70
2021/03/24 01:34:05;;;;;;;1999.90;999.90;;;2.50;99.90;;;;;;5013392;28;20041;-70
2021/03/24 01:36:32;;;;;;;1999.90;999.90;;;2.50;99.90;;;;;;5006128;28;20050;-70
2021/03/24 01:38:58;;;;;;;1999.90;999.90;;;2.50;99.90;;;;;;5004999;28;20125;-70
2021/03/24 01:41:26;;;;;;;1999.90;999.90;;;2.40;99.90;;;;;;4994434;28;20060;-70
2021/03/24 01:43:55;;;;;;;1999.90;999.90;;;2.40;99.90;;;;;;5008519;28;20408;-70
2021/03/24 01:46:31;;;;;;;1999.90;999.90;;;2.40;99.90;;;;;;5005526;28;20406;-70
2021/03/24 01:49:02;;;;;;;1999.90;999.90;;;2.40;99.90;;;;;;5009544;28;20045;-70
2021/03/24 01:51:55;;;;;;;1999.90;999.90;;;2.40;99.90;;;;;;5009128;28;20060;-71
2021/03/24 01:54:33;;;;;;;1999.90;999.90;;;2.40;99.90;;;;;;5010442;28;20458;-70
2021/03/24 01:57:18;;;;;;;1999.90;999.90;;;2.30;99.90;;;;;;5009423;28;20919;-70
2021/03/24 01:59:45;;;;;;;1999.90;999.90;;;2.30;99.90;;;;;;5014232;28;20050;-70
2021/03/24 02:02:16;;;;;;;1999.90;999.90;;;2.30;99.90;;;;;;5011872;28;20058;-70
2021/03/24 02:04:43;;;;;;;1999.90;999.90;;;2.30;99.90;;;;;;4991213;28;20075;-70
2021/03/24 02:07:38;;;;;;;1999.90;999.90;;;2.20;99.90;;;;;;5004303;28;20049;-70
2021/03/24 02:10:31;;;;;;;1999.90;999.90;;;2.20;99.90;;;;;;4980114;28;20141;-70
2021/03/24 02:13:14;;;;;;;1999.90;999.90;;;2.10;99.90;;;;;;5007454;28;20045;-70
2021/03/24 02:15:46;;;;;;;1999.90;999.90;;;2.10;99.90;;;;;;4996122;28;20050;-71
2021/03/24 02:18:17;;;;;;;1999.90;999.90;;;2.10;99.90;;;;;;4989079;28;20099;-70
2021/03/24 02:20:52;;;;;;;1999.90;999.90;;;2.10;99.90;;;;;;4993093;28;20186;-70
2021/03/24 02:23:38;;;;;;;1999.90;999.90;;;2.00;99.90;;;;;;5025853;28;20479;-70
2021/03/24 02:26:32;;;;;;;1999.90;999.90;;;2.00;99.90;;;;;;5004711;28;20045;-70
2021/03/24 02:29:03;;;;;;;1999.90;999.90;;;2.00;99.90;;;;;;4995777;28;20056;-70
2021/03/24 02:31:30;;;;;;;1999.90;999.90;;;2.00;99.90;;;;;;4991731;28;20497;-71
2021/03/24 02:42:27;;;;;;;1999.90;999.90;;;2.00;99.90;;;;;;5007960;28;20095;-70
2021/03/24 02:44:54;;;;;;;1999.90;999.90;;;1.90;99.90;;;;;;4988472;28;20042;-70
2021/03/24 02:47:21;;;;;;;1999.90;999.90;;;1.90;99.90;;;;;;5010946;28;20048;-70
2021/03/24 02:49:48;;;;;;;1999.90;999.90;;;1.90;99.90;;;;;;5011700;28;20042;-70
2021/03/24 02:52:15;;;;;;;1999.90;999.90;;;1.90;99.90;;;;;;5011809;28;20046;-69
2021/03/24 02:54:45;;;;;;;1999.90;999.90;;;1.90;99.90;;;;;;5006877;28;20051;-70
2021/03/24 02:57:11;;;;;;;1999.90;999.90;;;1.80;99.90;;;;;;4991978;28;20160;-70
2021/03/24 02:59:38;;;;;;;1999.90;999.90;;;1.80;99.90;;;;;;5005650;28;20047;-70
2021/03/24 03:02:13;;;;;;;1999.90;999.90;;;1.80;99.90;;;;;;5012431;28;20053;-70
2021/03/24 03:04:45;;;;;;;1999.90;999.90;;;1.80;99.90;;;;;;5003579;28;20413;-70
2021/03/24 03:07:24;;;;;;;1999.90;999.90;;;1.80;99.90;;;;;;5012648;28;20481;-70
2021/03/24 03:09:54;;;;;;;1999.90;999.90;;;1.80;99.90;;;;;;4991346;28;20499;-69
2021/03/24 03:12:45;;;;;;;1999.90;999.90;;;1.90;99.90;;;;;;5091356;27;20042;-70
2021/03/24 03:15:22;;;;;;;1999.90;999.90;;;1.90;99.90;;;;;;5003749;28;20165;-70
2021/03/24 03:18:09;;;;;;;1999.90;999.90;;;1.90;99.90;;;;;;5005218;28;20057;-70
2021/03/24 03:20:42;;;;;;;1999.90;999.90;;;1.90;99.90;;;;;;5002087;28;20048;-70
2021/03/24 03:23:18;;;;;;;1999.90;999.90;;;1.90;99.90;;;;;;5004320;28;20133;-70
2021/03/24 03:26:18;;;;;;;1999.90;999.90;;;1.90;99.90;;;;;;5005414;28;20046;-70
2021/03/24 03:28:50;;;;;;;1999.90;999.90;;;1.80;99.90;;;;;;4998290;28;20133;-70
2021/03/24 03:31:20;;;;;;;1999.90;999.90;;;1.80;99.90;;;;;;5010120;28;20046;-70
2021/03/24 03:33:50;;;;;;;1999.90;999.90;;;1.70;99.90;;;;;;5013364;28;20050;-70
2021/03/24 03:36:17;;;;;;;1999.90;999.90;;;1.70;99.90;;;;;;4999741;28;20041;-70
2021/03/24 03:38:45;;;;;;;1999.90;999.90;;;1.60;99.90;;;;;;4992873;28;20068;-70
2021/03/24 03:41:14;;;;;;;1999.90;999.90;;;1.70;99.90;;;;;;5008155;28;20141;-70
2021/03/24 03:43:42;;;;;;;1999.90;999.90;;;1.60;99.90;;;;;;5013928;28;20144;-70
2021/03/24 03:46:13;;;;;;;1999.90;999.90;;;1.60;99.90;;;;;;4996525;28;20048;-70
2021/03/24 03:48:39;;;;;;;1999.90;999.90;;;1.60;99.90;;;;;;4990814;28;20050;-70
2021/03/24 03:51:10;;;;;;;1999.90;999.90;;;1.60;99.90;;;;;;5014901;28;20469;-70
2021/03/24 03:53:45;;;;;;;1999.90;999.90;;;1.60;99.90;;;;;;4984367;28;20059;-70
2021/03/24 03:56:25;;;;;;;1999.90;999.90;;;1.50;99.90;;;;;;5008848;28;20156;-70
2021/03/24 03:59:02;;;;;;;1999.90;999.90;;;1.50;99.90;;;;;;4988386;28;20060;-70
2021/03/24 04:01:42;;;;;;;1999.90;999.90;;;1.50;99.90;;;;;;4999732;28;20086;-70
2021/03/24 04:04:26;;;;;;;1999.90;999.90;;;1.50;99.90;;;;;;4990800;28;20149;-70
2021/03/24 04:07:23;;;;;;;1999.90;999.90;;;1.50;99.90;;;;;;4993740;28;20140;-70
2021/03/24 04:09:53;;;;;;;1999.90;999.90;;;1.50;99.90;;;;;;5003607;28;20042;-70
2021/03/24 04:12:21;;;;;;;1999.90;999.90;;;1.40;99.90;;;;;;5009668;28;20077;-70
2021/03/24 04:14:50;;;;;;;1999.90;999.90;;;1.40;99.90;;;;;;5012742;28;20430;-70
2021/03/24 04:17:23;;;;;;;1999.90;999.90;;;1.40;99.90;;;;;;5008571;28;20054;-70
2021/03/24 04:19:53;;;;;;;1999.90;999.90;;;1.40;99.90;;;;;;5006165;28;20124;-70
2021/03/24 04:22:22;;;;;;;;;;;1.40;99.90;;;;;;5004851;28;20105;-70
2021/03/24 04:24:54;;;;;;;1999.90;999.90;;;1.30;99.90;;;;;;4986841;28;19921;-70
2021/03/24 04:27:25;;;;;;;1999.90;999.90;;;1.30;99.90;;;;;;5005099;28;20073;-70
2021/03/24 04:30:01;;;;;;;1999.90;999.90;;;1.30;99.90;;;;;;4997227;28;20465;-70
2021/03/24 04:32:27;;;;;;;1999.90;999.90;;;1.30;99.90;;;;;;5010389;28;20087;-70
2021/03/24 04:34:54;;;;;;;1999.90;999.90;;;1.30;99.90;;;;;;4984256;28;20506;-70
2021/03/24 04:37:28;;;;;;;1999.90;999.90;;;1.30;99.90;;;;;;5004958;28;20063;-70
2021/03/24 04:40:10;;;;;;;1999.90;999.90;;;1.30;99.90;;;;;;5001886;28;20045;-70
2021/03/24 04:42:51;;;;;;;1999.90;999.90;;;1.30;99.90;;;;;;4996029;28;20041;-70
2021/03/24 04:45:37;;;;;;;1999.90;999.90;;;1.30;99.90;;;;;;4983691;28;20110;-70
2021/03/24 04:48:09;;;;;;;1999.90;999.90;;;1.20;99.90;;;;;;4987812;28;20076;-70
2021/03/24 04:50:41;;;;;;;1999.90;999.90;;;1.20;99.90;;;;;;5016128;28;20382;-70
2021/03/24 04:53:12;;;;;;;1999.90;999.90;;;1.20;99.90;;;;;;5028129;28;20058;-70
2021/03/24 04:55:43;;;;;;;1999.90;999.90;;;1.20;99.90;;;;;;4989020;28;20389;-70
2021/03/24 04:58:22;;;;;;;1999.90;999.90;;;1.10;99.90;;;;;;5004216;28;20485;-70
2021/03/24 05:00:50;;;;;;;;;;;1.20;99.90;;;;;;5004209;28;20050;-70
2021/03/24 05:03:24;;;;;;;1999.90;999.90;;;1.10;99.90;;;;;;4986311;28;19925;-70
2021/03/24 05:06:06;;;;;;;1999.90;999.90;;;1.10;99.90;;;;;;5004035;28;20519;-70
2021/03/24 05:08:40;;;;;;;1999.90;999.90;;;1.10;99.90;;;;;;5003557;28;20050;-70
2021/03/24 05:11:17;;;;;;;1999.90;999.90;;;1.10;99.90;;;;;;4997502;28;20136;-70
2021/03/24 05:13:52;;;;;;;1999.90;999.90;;;1.10;99.90;;;;;;4984805;28;20046;-70
2021/03/24 05:16:39;;;;;;;1999.90;999.90;;;1.10;99.90;;;;;;5004135;28;20161;-70
2021/03/24 05:19:06;;;;;;;1999.90;999.90;;;1.10;99.90;;;;;;5021747;28;20546;-70
2021/03/24 05:21:47;;;;;;;1999.90;999.90;;;1.10;99.90;;;;;;4983668;28;20049;-70
2021/03/24 05:24:15;;;;;;;1999.90;999.90;;;1.00;99.90;;;;;;5090282;28;20058;-70
2021/03/24 05:26:58;;;;;;;1999.90;999.90;;;1.00;99.90;;;;;;4995671;28;20046;-70
2021/03/24 05:29:27;;;;;;;1999.90;999.90;;;1.00;99.90;;;;;;5021061;28;20077;-70
2021/03/24 05:31:56;;;;;;;1999.90;999.90;;;1.00;99.90;;;;;;5003134;28;20050;-70
2021/03/24 05:34:28;;;;;;;1999.90;999.90;;;1.00;99.90;;;;;;5006853;28;20045;-70
2021/03/24 05:36:55;;;;;;;1999.90;999.90;;;1.00;99.90;;;;;;5093606;28;20037;-70
2021/03/24 05:39:31;;;;;;;1999.90;999.90;;;1.00;99.90;;;;;;5006124;28;20534;-70
2021/03/24 05:42:30;;;;;;;1999.90;999.90;;;1.10;99.90;;;;;;4999525;28;20070;-70
2021/03/24 05:45:12;;;;;;;;;;;1.10;99.90;;;;;;4984589;28;20468;-70
2021/03/24 05:47:46;;;;;;;1999.90;999.90;;;1.10;99.90;;;;;;4984257;28;19928;-70
2021/03/24 05:50:40;;;;;;;1999.90;999.90;;;1.10;99.90;;;;;;4983549;28;20050;-70
2021/03/24 05:53:45;;;;;;;1999.90;999.90;;;1.10;99.90;;;;;;4995004;28;20058;-70
2021/03/24 05:57:04;;;;;;;1999.90;999.90;;;1.10;99.90;;;;;;5000384;28;20061;-69
2021/03/24 06:00:19;;;;;;;1999.90;999.90;;;1.10;99.90;;;;;;5024848;28;20049;-70
2021/03/24 06:02:56;;;;;;;1999.90;999.90;;;1.10;99.90;;;;;;4964896;28;20105;-70
2021/03/24 06:05:31;;;;;;;1999.90;999.90;;;1.10;99.90;;;;;;5013648;28;20038;-69
2021/03/24 06:08:06;;;;;;;1999.90;999.90;;;1.20;99.90;;;;;;4989482;28;20377;-69
2021/03/24 06:11:26;;;;;;;1999.90;999.90;;;1.20;99.90;;;;;;4993917;28;20046;-70
2021/03/24 06:14:19;;;;;;;1999.90;999.90;;;1.30;99.90;;;;;;4999999;28;20568;-70
2021/03/24 06:17:03;;;;;;;1999.90;999.90;;;1.30;99.90;;;;;;5003485;28;20533;-70
2021/03/24 06:19:56;;;;;;;1999.90;999.90;;;1.30;99.90;;;;;;4997550;28;20104;-70
2021/03/24 06:22:32;;;;;;;1999.90;999.90;;;1.40;99.90;;;;;;5003782;28;20046;-70
2021/03/24 06:25:25;;;;;;;1999.90;999.90;;;1.40;99.90;;;;;;5014158;28;20068;-70
2021/03/24 06:31:20;;;;;;;1999.90;999.90;;;1.50;99.90;;;;;;5000627;28;20053;-70
2021/03/24 06:34:13;;;;;;;1999.90;999.90;;;1.60;99.90;;;;;;5084601;27;20043;-70
2021/03/24 06:37:24;;;;;;;1999.90;999.90;;;1.70;99.90;;;;;;5005085;28;20129;-70
2021/03/24 06:40:20;;;;;;;1999.90;999.90;;;1.80;99.90;;;;;;4945978;28;20923;-70
2021/03/24 06:43:40;;;;;;;1999.90;999.90;;;2.00;99.90;;;;;;4944638;28;20053;-70
2021/03/24 06:46:23;;;;;;;1999.90;999.90;;;2.10;99.90;;;;;;4941825;28;20082;-70
2021/03/24 06:48:58;;;;;;;1999.90;999.90;;;2.30;99.90;;;;;;4950291;28;20125;-70
2021/03/24 06:51:47;;;;;;;1999.90;999.90;;;2.40;99.90;;;;;;4981826;28;20402;-70
2021/03/24 06:54:31;;;;;;;1999.90;999.90;;;2.50;99.90;;;;;;5007419;28;20057;-70
2021/03/24 06:57:09;;;;;;;1999.90;999.90;;;2.70;99.90;;;;;;4980710;28;20424;-70
2021/03/24 06:59:50;;;;;;;1999.90;999.90;;;2.80;99.90;;;;;;5079715;27;20049;-70
2021/03/24 07:02:41;;;;;;;1999.90;999.90;;;3.00;99.90;;;;;;5012797;28;20041;-70
2021/03/24 07:05:22;;;;;;;1999.90;999.90;;;3.10;99.90;;;;;;5003079;28;20052;-70
2021/03/24 07:08:16;;;;;;;1999.90;999.90;;;3.30;99.90;;;;;;5004433;28;20049;-70
2021/03/24 07:10:59;;;;;;;1999.90;999.90;;;3.40;99.90;;;;;;4998888;28;20444;-70
2021/03/24 07:13:32;;;;;;;1999.90;999.90;;;3.60;99.90;;;;;;5005715;28;20645;-70
2021/03/24 07:16:32;;;;;;;1999.90;999.90;;;3.80;99.90;;;;;;5003477;28;20053;-70
2021/03/24 07:19:15;;;;;;;1999.90;999.90;;;4.00;99.90;;;;;;5008486;28;20052;-70
2021/03/24 07:21:59;;;;;;;1999.90;999.90;;;4.10;99.90;;;;;;5004868;28;20525;-70
2021/03/24 07:24:50;;;;;;;1999.90;999.90;;;4.40;99.90;;;;;;5005452;28;20042;-69
2021/03/24 07:28:02;;;;;;;1999.90;999.90;;;4.50;99.90;;;;;;4986641;28;20434;-70
2021/03/24 07:30:44;;;;;;;1999.90;999.90;;;4.70;99.90;;;;;;5002227;28;20425;-69
2021/03/24 07:33:40;;;;;;;1999.90;999.90;;;4.90;99.90;;;;;;4988123;28;20468;-70
2021/03/24 07:36:29;;;;;;;1999.90;999.90;;;5.10;99.90;;;;;;5011311;28;20396;-70
2021/03/24 07:39:10;;;;;;;1999.90;999.90;;;5.20;99.90;;;;;;4986176;28;20051;-70
2021/03/24 07:41:39;;;;;;;1999.90;999.90;;;5.30;99.90;;;;;;5002379;28;20056;-70
2021/03/24 07:44:44;;;;;;;1999.90;999.90;;;5.40;99.90;;;;;;5004386;28;20049;-70
2021/03/24 07:47:25;;;;;;;1999.90;999.90;;;5.60;99.90;;;;;;5004559;28;20523;-70
2021/03/24 07:49:54;;;;;;;1999.90;999.90;;;5.70;99.90;;;;;;5082446;27;20069;-70
2021/03/24 07:52:53;;;;;;;1999.90;999.90;;;5.90;99.90;;;;;;5002711;28;20050;-69
2021/03/24 07:55:25;;;;;;;1999.90;999.90;;;6.00;99.90;;;;;;4995641;28;20495;-70
2021/03/24 07:58:19;;;;;;;1999.90;999.90;;;6.10;99.90;;;;;;4988317;28;20038;-70
2021/03/24 08:00:54;;;;;;;1999.90;999.90;;;6.20;99.90;;;;;;4997584;28;20043;-70
2021/03/24 08:03:41;;;;;;;1999.90;999.90;;;6.40;99.90;;;;;;4999138;28;20132;-69
2021/03/24 08:06:13;;;;;;;1999.90;999.90;;;6.50;99.90;;;;;;5008720;28;22855;-70
2021/03/24 08:09:01;;;;;;;1999.90;999.90;;;6.60;99.90;;;;;;5002242;28;20067;-70
2021/03/24 08:11:55;;;;;;;1999.90;999.90;;;6.80;99.90;;;;;;5002046;28;20372;-70
2021/03/24 08:14:50;;;;;;;1999.90;999.90;;;6.90;99.90;;;;;;5006009;28;20045;-70
2021/03/24 08:17:29;;;;;;;1999.90;999.90;;;7.10;99.90;;;;;;4988711;28;20046;-70
2021/03/24 08:20:08;;;;;;;1999.90;999.90;;;7.20;99.90;;;;;;5006612;28;20046;-70
2021/03/24 08:22:46;;;;;;;1999.90;999.90;;;7.30;99.90;;;;;;5001863;28;20050;-70
2021/03/24 08:25:23;;;;;;;1999.90;999.90;;;7.40;99.90;;;;;;5008108;28;20053;-70
2021/03/24 08:28:04;;;;;;;1999.90;999.90;;;7.60;99.90;;;;;;5005743;28;20042;-70
2021/03/24 08:30:56;;;;;;;1999.90;999.90;;;7.70;99.90;;;;;;5002790;28;20054;-69
2021/03/24 08:33:36;;;;;;;1999.90;999.90;;;7.80;99.90;;;;;;5001204;28;20100;-69
2021/03/24 08:36:09;;;;;;;1999.90;999.90;;;8.00;99.90;;;;;;5003858;28;20154;-69
2021/03/24 08:38:53;;;;;;;1999.90;999.90;;;8.10;99.90;;;;;;5001158;28;20049;-70
2021/03/24 08:41:44;;;;;;;1999.90;999.90;;;8.30;99.90;;;;;;4983296;28;20472;-70
2021/03/24 08:44:21;;;;;;;1999.90;999.90;;;8.50;99.90;;;;;;5009909;28;20149;-70
2021/03/24 08:46:52;;;;;;;1999.90;999.90;;;8.60;99.90;;;;;;5004112;28;20060;-70
2021/03/24 08:49:22;;;;;;;1999.90;999.90;;;8.70;99.90;;;;;;5000828;28;20046;-70
2021/03/24 08:51:51;;;;;;;1999.90;999.90;;;8.90;99.90;;;;;;4984325;28;20060;-70
2021/03/24 08:54:34;;;;;;;1999.90;999.90;;;9.00;99.90;;;;;;4984111;28;20137;-70
2021/03/24 08:57:33;;;;;;;1999.90;999.90;;;9.20;99.90;;;;;;5005451;28;20462;-70
2021/03/24 09:00:02;;;;;;;1999.90;999.90;;;9.20;99.90;;;;;;5002429;28;20077;-70
2021/03/24 09:02:28;;;;;;;1999.90;999.90;;;9.40;99.90;;;;;;5000320;28;20420;-70
2021/03/24 09:05:14;;;;;;;1999.90;999.90;;;9.40;99.90;;;;;;4996587;28;20045;-69
2021/03/24 09:07:59;;;;;;;1999.90;999.90;;;9.50;99.90;;;;;;4999714;28;20118;-70
2021/03/24 09:11:02;;;;;;;1999.90;999.90;;;9.70;99.90;;;;;;4999555;28;20057;-70
2021/03/24 09:13:32;;;;;;;1999.90;999.90;;;9.80;99.90;;;;;;4989349;28;20132;-70
2021/03/24 09:16:36;;;;;;;1999.90;999.90;;;9.90;99.90;;;;;;5010060;28;20418;-70
2021/03/24 09:19:32;;;;;;;1999.90;999.90;;;10.00;99.90;;;;;;5003207;28;20103;-70
2021/03/24 09:22:39;;;;;;;1999.90;999.90;;;10.10;99.90;;;;;;5002259;28;20073;-70
2021/03/24 09:25:19;;;;;;;1999.90;999.90;;;10.20;99.90;;;;;;4998077;28;20130;-70
2021/03/24 09:28:07;;;;;;;1999.90;999.90;;;10.30;99.90;;;;;;5003198;28;20043;-70
2021/03/24 09:31:07;;;;;;;1999.90;999.90;;;10.30;99.90;;;;;;4998884;28;20704;-70
2021/03/24 09:33:48;;;;;;;1999.90;999.90;;;10.50;99.90;;;;;;5009350;28;20518;-70
2021/03/24 09:36:23;;;;;;;1999.90;999.90;;;10.60;99.90;;;;;;5001580;28;20145;-70
2021/03/24 09:38:53;;;;;;;1999.90;999.90;;;10.70;99.90;;;;;;5006935;28;20050;-70
2021/03/24 09:41:25;;;;;;;1999.90;999.90;;;10.80;99.90;;;;;;4984292;28;20042;-70
2021/03/24 09:43:56;;;;;;;1999.90;999.90;;;10.90;99.90;;;;;;4986808;28;20050;-70
2021/03/24 09:46:28;;;;;;;1999.90;999.90;;;11.00;99.90;;;;;;5000104;28;20069;-70
2021/03/24 09:49:02;;;;;;;1999.90;999.90;;;11.10;99.90;;;;;;4999552;28;20049;-70
2021/03/24 09:51:39;;;;;;;1999.90;999.90;;;11.20;99.90;;;;;;5003398;28;20054;-71
2021/03/24 09:54:07;;;;;;;1999.90;999.90;;;11.30;99.90;;;;;;5084437;27;20054;-70
2021/03/24 09:56:34;;;;;;;1999.90;999.90;;;11.40;99.90;;;;;;5010632;28;20075;-70
2021/03/24 09:59:25;;;;;;;1999.90;999.90;;;11.50;99.90;;;;;;5005260;28;20050;-70
2021/03/24 10:02:12;;;;;;;1999.90;999.90;;;11.60;99.90;;;;;;4999516;28;20050;-70
2021/03/24 10:04:47;;;;;;;1999.90;999.90;;;11.70;99.90;;;;;;4985551;28;20143;-70
2021/03/24 10:07:24;;;;;;;1999.90;999.90;;;11.90;99.90;;;;;;4984058;28;20137;-70
2021/03/24 10:09:58;;;;;;;1999.90;999.90;;;12.10;99.90;;;;;;4984554;28;20064;-70
2021/03/24 10:12:37;;;;;;;1999.90;999.90;;;12.30;99.90;;;;;;5001032;28;20510;-70
2021/03/24 10:15:24;;;;;;;1999.90;999.90;;;12.60;99.90;;;;;;4987413;28;20059;-70
2021/03/24 10:17:57;;;;;;;1999.90;999.90;;;12.80;99.90;;;;;;5005478;28;20483;-70
2021/03/24 10:20:35;;;;;;;1999.90;999.90;;;13.00;99.90;;;;;;5014606;28;20051;-70
2021/03/24 10:23:13;;;;;;;1999.90;999.90;;;13.00;99.90;;;;;;5089185;27;20058;-70
2021/03/24 10:25:50;;;;;;;1999.90;999.90;;;13.00;99.90;;;;;;5010059;28;20049;-70
2021/03/24 10:28:52;;;;;;;1999.90;999.90;;;13.00;99.90;;;;;;5008689;28;20053;-70
2021/03/24 10:31:26;;;;;;;1999.90;999.90;;;13.10;99.90;;;;;;5080556;27;20073;-70
2021/03/24 10:34:06;;;;;;;1999.90;999.90;;;13.00;99.90;;;;;;5005045;28;20041;-70
2021/03/24 10:36:43;;;;;;;1999.90;999.90;;;13.10;99.90;;;;;;5006798;28;21308;-70
2021/03/24 10:39:22;;;;;;;1999.90;999.90;;;13.30;99.90;;;;;;5001972;28;20125;-70
2021/03/24 10:42:16;;;;;;;1999.90;999.90;;;13.50;99.90;;;;;;5008839;28;20051;-70
2021/03/24 10:44:52;;;;;;;1999.90;999.90;;;13.70;99.90;;;;;;5006460;28;20060;-71
2021/03/24 10:47:21;;;;;;;1999.90;999.90;;;14.00;99.90;;;;;;5009694;28;20080;-71
2021/03/24 10:50:12;;;;;;;1999.90;999.90;;;14.10;99.90;;;;;;5004213;28;20049;-71
2021/03/24 10:53:03;;;;;;;1999.90;999.90;;;14.10;99.90;;;;;;4983663;28;20058;-70
2021/03/24 10:55:31;;;;;;;1999.90;999.90;;;14.00;99.90;;;;;;5007824;28;20049;-70
2021/03/24 10:58:16;;;;;;;1999.90;999.90;;;14.10;99.90;;;;;;5003749;28;20158;-71
2021/03/24 11:00:48;;;;;;;1999.90;999.90;;;14.20;99.90;;;;;;5003093;28;20485;-70
2021/03/24 11:03:23;;;;;;;1999.90;999.90;;;14.30;99.90;;;;;;5000627;28;20042;-71
2021/03/24 11:06:11;;;;;;;1999.90;999.90;;;14.30;99.90;;;;;;4979587;28;20379;-71
2021/03/24 11:08:52;;;;;;;1999.90;999.90;;;14.30;99.90;;;;;;5003561;28;20042;-71
2021/03/24 11:11:54;;;;;;;1999.90;999.90;;;14.30;99.90;;;;;;5006354;28;20052;-70
2021/03/24 11:14:37;;;;;;;1999.90;999.90;;;14.50;99.90;;;;;;5000608;28;20137;-70
2021/03/24 11:17:07;;;;;;;1999.90;999.90;;;14.60;99.90;;;;;;5002208;28;20049;-70
2021/03/24 11:19:47;;;;;;;1999.90;999.90;;;14.60;99.90;;;;;;4996222;28;20042;-70
2021/03/24 11:22:19;;;;;;;1999.90;999.90;;;14.70;99.90;;;;;;4983225;28;20046;-71
2021/03/24 11:25:15;;;;;;;1999.90;999.90;;;14.80;99.90;;;;;;5004367;28;20050;-71
2021/03/24 11:27:54;;;;;;;1999.90;999.90;;;15.00;99.90;;;;;;5002433;28;20052;-70
2021/03/24 11:30:45;;;;;;;1999.90;999.90;;;15.20;99.90;;;;;;5001205;28;20473;-70
2021/03/24 11:33:35;;;;;;;1999.90;999.90;;;15.20;99.90;;;;;;4997039;28;20050;-70
2021/03/24 11:36:19;;;;;;;1999.90;999.90;;;15.30;99.90;;;;;;5003809;28;20545;-70
2021/03/24 11:38:58;;;;;;;1999.90;999.90;;;15.40;99.90;;;;;;4998778;28;20038;-69
2021/03/24 11:41:27;;;;;;;1999.90;999.90;;;15.40;99.90;;;;;;5002656;28;20042;-69
2021/03/24 11:44:10;;;;;;;1999.90;999.90;;;15.40;99.90;;;;;;4997784;28;20094;-69
2021/03/24 11:46:42;;;;;;;1999.90;999.90;;;15.50;99.90;;;;;;5002759;28;20050;-70
2021/03/24 11:49:34;;;;;;;1999.90;999.90;;;15.50;99.90;;;;;;5006065;28;20111;-69
2021/03/24 11:52:39;;;;;;;1999.90;999.90;;;15.50;99.90;;;;;;5003150;28;20502;-69
2021/03/24 11:55:37;;;;;;;1999.90;999.90;;;15.50;99.90;;;;;;4960350;28;20043;-69
2021/03/24 11:58:22;;;;;;;1999.90;999.90;;;15.70;99.90;;;;;;4963339;28;20044;-70
2021/03/24 12:00:53;;;;;;;1999.90;999.90;;;16.00;99.90;;;;;;4963990;28;20055;-70
2021/03/24 12:03:50;;;;;;;1999.90;999.90;;;16.20;99.90;;;;;;4965975;28;20507;-70
2021/03/24 12:06:25;;;;;;;1999.90;999.90;;;16.30;99.90;;;;;;4974528;28;20492;-70
2021/03/24 12:09:03;;;;;;;1999.90;999.90;;;16.40;99.90;;;;;;4958405;28;20050;-70
2021/03/24 12:11:34;;;;;;;1999.90;999.90;;;16.60;99.90;;;;;;4963375;28;20199;-71
2021/03/24 12:14:25;;;;;;;1999.90;999.90;;;16.60;99.90;;;;;;4960722;28;20081;-70
2021/03/24 12:16:56;;;;;;;1999.90;999.90;;;16.60;99.90;;;;;;4961134;28;20392;-70
2021/03/24 12:19:49;;;;;;;1999.90;999.90;;;16.70;99.90;;;;;;4959385;28;20450;-70
2021/03/24 12:22:18;;;;;;;1999.90;999.90;;;16.70;99.90;;;;;;4959178;28;20051;-70
2021/03/24 12:24:47;;;;;;;1999.90;999.90;;;16.80;99.90;;;;;;4956709;28;20059;-70
2021/03/24 12:27:17;;;;;;;1999.90;999.90;;;16.80;99.90;;;;;;4958587;28;20141;-70
2021/03/24 12:29:56;;;;;;;1999.90;999.90;;;16.80;99.90;;;;;;4959443;28;20046;-70
2021/03/24 12:32:26;;;;;;;1999.90;999.90;;;16.80;99.90;;;;;;4960980;28;20038;-70
2021/03/24 12:34:54;;;;;;;1999.90;999.90;;;16.60;99.90;;;;;;4958250;28;20063;-70
2021/03/24 12:37:38;;;;;;;1999.90;999.90;;;16.50;99.90;;;;;;4958808;28;20047;-70
2021/03/24 12:40:06;;;;;;;1999.90;999.90;;;16.30;99.90;;;;;;4962439;28;20310;-70
2021/03/24 12:42:33;;;;;;;1999.90;999.90;;;16.40;99.90;;;;;;4969202;28;20061;-70
2021/03/24 12:45:01;;;;;;;1999.90;999.90;;;16.40;99.90;;;;;;4960829;28;20130;-70
2021/03/24 12:47:37;;;;;;;1999.90;999.90;;;16.40;99.90;;;;;;4961544;28;20059;-70
2021/03/24 12:50:15;;;;;;;1999.90;999.90;;;16.30;99.90;;;;;;4959047;28;20055;-70
2021/03/24 12:52:57;;;;;;;1999.90;999.90;;;16.20;99.20;;;;;;4975253;28;20054;-70
2021/03/24 12:55:23;;;;;;;1999.90;999.90;;;16.10;99.40;;;;;;4998955;28;20054;-70
2021/03/24 12:58:20;;;;;;;1999.90;999.90;;;16.10;99.90;;;;;;5001642;28;20094;-70
2021/03/24 13:01:05;;;;;;;1999.90;999.90;;;16.10;99.20;;;;;;4982952;28;20078;-69
2021/03/24 13:03:43;;;;;;;1999.90;999.90;;;15.90;97.50;;;;;;5001525;28;20051;-70
2021/03/24 13:06:43;;;;;;;1999.90;999.90;;;15.90;99.60;;;;;;5001474;28;20050;-71
2021/03/24 13:09:35;;;;;;;1999.90;999.90;;;15.90;98.00;;;;;;4986837;28;20534;-70
2021/03/24 13:12:17;;;;;;;1999.90;999.90;;;15.90;98.50;;;;;;5001525;28;20061;-70